Time;durP1;ratioP1;P1;durP2;ratioP2;P2;SDS_P1;SDS_P2;PMS_P1;PMS_P2;Temp;Humidity;BMP_temperature;BMP_pressure;BME280_temperature;BME280_humidity;BME280_pressure;Samples;Min_cycle;Max_cycle;Signal;HPM_P1;HPM_P2
2022/10/12 00:01:06;;;;;;;7.65;2.38;;;6.60;99.90;;;;;;5087138;28;20166;-81
2022/10/12 00:03:33;;;;;;;7.38;2.00;;;6.60;99.90;;;;;;5084031;28;20024;-81
2022/10/12 00:06:06;;;;;;;5.57;1.67;;;6.50;99.90;;;;;;5080720;28;20028;-81
2022/10/12 00:08:32;;;;;;;4.50;1.92;;;6.50;99.90;;;;;;5084750;28;20027;-81
2022/10/12 00:11:05;;;;;;;7.00;2.00;;;6.50;99.90;;;;;;5084544;28;20024;-81
2022/10/12 00:13:31;;;;;;;10.88;2.47;;;6.50;99.90;;;;;;5075528;28;20370;-81
2022/10/12 00:16:05;;;;;;;8.07;2.10;;;6.50;99.90;;;;;;5084696;28;20393;-81
2022/10/12 00:18:32;;;;;;;14.68;2.17;;;6.50;99.90;;;;;;5075187;28;20035;-81
2022/10/12 00:21:02;;;;;;;4.40;1.83;;;6.60;99.90;;;;;;5079337;28;20400;-81
2022/10/12 00:23:28;;;;;;;5.15;1.70;;;6.60;99.90;;;;;;5078566;28;20483;-81
2022/10/12 00:26:01;;;;;;;8.70;2.28;;;6.60;99.90;;;;;;5082453;28;20040;-81
2022/10/12 00:28:27;;;;;;;13.48;2.60;;;6.60;99.90;;;;;;5082782;28;20028;-81
2022/10/12 00:30:53;;;;;;;13.95;1.98;;;6.60;99.90;;;;;;5071531;28;20107;-79
2022/10/12 00:33:18;;;;;;;12.45;2.50;;;6.60;99.90;;;;;;5085877;28;20104;-81
2022/10/12 00:35:44;;;;;;;6.20;1.60;;;6.50;99.90;;;;;;5078660;28;20045;-81
2022/10/12 00:38:10;;;;;;;6.50;1.90;;;6.50;99.90;;;;;;5074304;28;20028;-81
2022/10/12 00:40:36;;;;;;;10.07;1.95;;;6.50;99.90;;;;;;5081037;28;20701;-81
2022/10/12 00:43:02;;;;;;;7.65;2.30;;;6.40;99.90;;;;;;5080491;28;20089;-81
2022/10/12 00:45:29;;;;;;;9.98;2.40;;;6.40;99.90;;;;;;5082552;28;20024;-79
2022/10/12 00:48:04;;;;;;;6.15;2.30;;;6.50;99.90;;;;;;5079639;28;20123;-81
2022/10/12 00:50:33;;;;;;;6.07;2.05;;;6.40;99.90;;;;;;5081933;28;20069;-81
2022/10/12 00:53:13;;;;;;;8.98;1.85;;;6.40;99.90;;;;;;5077227;28;20047;-81
2022/10/12 00:55:45;;;;;;;6.53;2.13;;;6.40;99.90;;;;;;5077692;28;20036;-81
2022/10/12 00:58:12;;;;;;;6.65;1.65;;;6.40;99.90;;;;;;5082825;28;20043;-81
2022/10/12 01:00:39;;;;;;;13.45;2.78;;;6.40;99.90;;;;;;5078888;28;20074;-82
2022/10/12 01:03:08;;;;;;;7.90;2.33;;;6.40;99.90;;;;;;5076309;28;20020;-82
2022/10/12 01:05:35;;;;;;;10.10;4.10;;;6.40;99.90;;;;;;5083810;28;20400;-81
2022/10/12 01:08:01;;;;;;;9.48;1.70;;;6.30;99.90;;;;;;5078742;28;20040;-79
2022/10/12 01:10:27;;;;;;;8.40;2.47;;;6.40;99.90;;;;;;5086699;28;20495;-80
2022/10/12 01:13:02;;;;;;;13.98;2.50;;;6.30;99.90;;;;;;5085377;28;20036;-80
2022/10/12 01:15:34;;;;;;;7.30;2.33;;;6.30;99.90;;;;;;5077412;28;20031;-81
2022/10/12 01:18:24;;;;;;;9.82;2.75;;;6.30;99.90;;;;;;5078030;28;20032;-82
2022/10/12 01:21:00;;;;;;;15.98;3.78;;;6.20;99.90;;;;;;5080752;28;20044;-81
2022/10/12 01:24:02;;;;;;;10.32;2.63;;;6.20;99.90;;;;;;5085503;28;20028;-81
2022/10/12 01:26:39;;;;;;;15.52;2.50;;;6.10;99.90;;;;;;5070965;28;20073;-81
2022/10/12 01:29:31;;;;;;;14.10;2.55;;;6.10;99.90;;;;;;5079411;28;20028;-81
2022/10/12 01:32:08;;;;;;;11.82;3.03;;;6.10;99.90;;;;;;5075794;28;20032;-81
2022/10/12 01:34:45;;;;;;;7.65;2.00;;;6.10;99.90;;;;;;5078535;28;20040;-81
2022/10/12 01:37:20;;;;;;;7.93;1.73;;;6.00;99.90;;;;;;5078513;28;20504;-81
2022/10/12 01:39:52;;;;;;;6.53;1.88;;;6.00;99.90;;;;;;5081765;28;20103;-81
2022/10/12 01:42:42;;;;;;;8.73;2.35;;;6.00;99.90;;;;;;5080286;28;20053;-81
2022/10/12 01:45:11;;;;;;;5.07;2.42;;;6.00;99.90;;;;;;5075978;28;20032;-81
2022/10/12 01:47:39;;;;;;;7.63;2.58;;;6.00;99.90;;;;;;5081788;28;20029;-81
2022/10/12 01:50:10;;;;;;;5.63;1.77;;;6.00;99.90;;;;;;5079387;28;20107;-81
2022/10/12 01:52:57;;;;;;;8.48;2.47;;;6.00;99.90;;;;;;5077761;28;20024;-81
2022/10/12 01:55:36;;;;;;;2.95;1.63;;;6.00;99.90;;;;;;5079448;28;20040;-80
2022/10/12 01:58:22;;;;;;;6.80;2.10;;;5.90;99.90;;;;;;5076429;28;20035;-80
2022/10/12 02:01:19;;;;;;;7.70;3.15;;;6.00;99.90;;;;;;5076521;28;20048;-81
2022/10/12 02:03:44;;;;;;;;;;;5.90;99.90;;;;;;5079697;28;20024;-81
2022/10/12 02:06:18;;;;;;;10.25;2.70;;;5.90;99.90;;;;;;5079518;28;20061;-81
2022/10/12 02:09:16;;;;;;;10.30;1.63;;;5.90;99.90;;;;;;5079172;28;20028;-79
2022/10/12 02:11:45;;;;;;;8.80;2.67;;;6.00;99.90;;;;;;5069794;28;20040;-81
2022/10/12 02:14:17;;;;;;;5.07;2.30;;;6.00;99.90;;;;;;5078924;28;20534;-78
2022/10/12 02:16:49;;;;;;;11.48;2.35;;;6.00;99.90;;;;;;5083035;28;20059;-81
2022/10/12 02:19:21;;;;;;;6.70;2.38;;;6.00;99.90;;;;;;5081841;28;20032;-80
2022/10/12 02:21:48;;;;;;;9.07;1.85;;;5.90;99.90;;;;;;5080536;28;20036;-82
2022/10/12 02:24:16;;;;;;;7.45;2.00;;;6.00;99.90;;;;;;5078442;28;20067;-81
2022/10/12 02:26:44;;;;;;;8.30;2.40;;;6.00;99.90;;;;;;5083184;28;20029;-81
2022/10/12 02:29:18;;;;;;;7.53;2.70;;;6.00;99.90;;;;;;5082500;28;20032;-81
2022/10/12 02:32:10;;;;;;;9.30;2.92;;;5.90;99.90;;;;;;5079900;28;20027;-81
2022/10/12 02:35:04;;;;;;;9.93;2.63;;;5.90;99.90;;;;;;5083812;28;20069;-79
2022/10/12 02:37:35;;;;;;;4.30;1.95;;;5.90;99.90;;;;;;5066362;28;20177;-81
2022/10/12 02:40:26;;;;;;;11.88;3.00;;;5.90;99.90;;;;;;5080680;28;20370;-81
2022/10/12 02:43:24;;;;;;;11.13;1.98;;;5.90;99.90;;;;;;5075680;28;20213;-80
2022/10/12 02:45:51;;;;;;;12.85;2.70;;;5.80;99.90;;;;;;5087291;28;20057;-81
2022/10/12 02:48:22;;;;;;;7.97;2.83;;;5.80;99.90;;;;;;5083047;28;20084;-81
2022/10/12 02:50:58;;;;;;;12.20;2.83;;;5.80;99.90;;;;;;5085034;28;20055;-81
2022/10/12 02:53:29;;;;;;;6.93;2.45;;;5.80;99.90;;;;;;5083856;28;20039;-82
2022/10/12 02:56:01;;;;;;;13.75;3.75;;;5.80;99.90;;;;;;5082049;28;20025;-81
2022/10/12 02:58:27;;;;;;;10.80;2.67;;;5.80;99.90;;;;;;5084666;28;20056;-82
2022/10/12 03:00:53;;;;;;;8.85;2.45;;;5.80;99.90;;;;;;5085840;28;20075;-80
2022/10/12 03:03:18;;;;;;;7.88;2.25;;;5.80;99.90;;;;;;5087379;28;20044;-81
2022/10/12 03:05:45;;;;;;;5.30;2.15;;;5.80;99.90;;;;;;5086312;28;20032;-81
2022/10/12 03:08:10;;;;;;;7.85;2.13;;;5.90;99.90;;;;;;5078713;28;20135;-81
2022/10/12 03:10:38;;;;;;;11.15;2.35;;;5.90;99.90;;;;;;5082898;28;20056;-81
2022/10/12 03:13:06;;;;;;;9.07;2.47;;;6.00;99.90;;;;;;5087310;28;20028;-80
2022/10/12 03:15:32;;;;;;;4.13;2.03;;;6.00;99.90;;;;;;5081988;28;20024;-81
2022/10/12 03:17:58;;;;;;;9.30;3.05;;;6.00;99.90;;;;;;5082190;28;20363;-81
2022/10/12 03:20:23;;;;;;;10.82;3.20;;;6.00;99.90;;;;;;5086016;28;20036;-82
2022/10/12 03:22:49;;;;;;;8.23;2.67;;;6.00;99.90;;;;;;5082388;28;20043;-81
2022/10/12 03:25:15;;;;;;;7.78;2.92;;;6.00;99.90;;;;;;5078901;28;20031;-82
2022/10/12 03:27:42;;;;;;;13.77;3.35;;;6.00;99.90;;;;;;5087538;28;20081;-81
2022/10/12 03:30:10;;;;;;;15.98;3.15;;;6.00;99.90;;;;;;5084651;28;20073;-81
2022/10/12 03:32:36;;;;;;;9.07;2.63;;;6.00;99.90;;;;;;5082581;28;20499;-80
2022/10/12 03:35:08;;;;;;;11.20;3.22;;;5.90;99.90;;;;;;5084484;28;20032;-81
2022/10/12 03:37:34;;;;;;;11.80;2.83;;;5.90;99.90;;;;;;5082149;28;20028;-82
2022/10/12 03:39:59;;;;;;;11.88;2.80;;;5.90;99.90;;;;;;5085549;28;20518;-79
2022/10/12 03:42:25;;;;;;;6.53;2.13;;;5.80;99.90;;;;;;5083261;28;20035;-81
2022/10/12 03:44:51;;;;;;;5.18;2.20;;;5.70;99.90;;;;;;5083780;28;20457;-79
2022/10/12 03:47:17;;;;;;;7.32;2.42;;;5.70;99.90;;;;;;5076595;28;20032;-80
2022/10/12 03:49:42;;;;;;;6.68;2.15;;;5.70;99.90;;;;;;5083511;28;20439;-80
2022/10/12 03:52:58;;;;;;;8.18;2.30;;;5.70;99.90;;;;;;5082781;28;20032;-81
2022/10/12 03:55:06;;;;;;;13.27;2.65;;;5.70;99.90;;;;;;5072717;28;20040;-82
2022/10/12 03:57:40;;;;;;;15.35;2.83;;;5.60;99.90;;;;;;5090286;28;20020;-81
2022/10/12 04:00:08;;;;;;;7.32;2.42;;;5.60;99.90;;;;;;5085628;28;20435;-79
2022/10/12 04:02:52;;;;;;;4.93;1.83;;;5.60;99.90;;;;;;5085112;28;20087;-81
2022/10/12 04:05:41;;;;;;;8.85;2.00;;;5.60;99.90;;;;;;5088875;28;20066;-82
2022/10/12 04:08:54;;;;;;;3.83;1.90;;;5.60;99.90;;;;;;5087733;28;20028;-82
2022/10/12 04:11:37;;;;;;;;;;;;;;;;;;;;;
2022/10/12 04:14:03;;;;;;;10.93;2.40;;;5.60;99.90;;;;;;5064023;28;20056;-79
2022/10/12 04:17:03;;;;;;;15.77;3.80;;;5.60;99.90;;;;;;5080299;28;20132;-80
2022/10/12 04:20:33;;;;;;;;;;;;;;;;;;;;;
2022/10/12 04:23:46;;;;;;;9.38;1.90;;;5.60;99.90;;;;;;5053875;28;20056;-78
2022/10/12 04:26:29;;;;;;;5.78;2.28;;;5.50;99.90;;;;;;5078691;28;20047;-82
2022/10/12 04:29:21;;;;;;;10.07;2.20;;;5.40;99.90;;;;;;5076011;28;20101;-81
2022/10/12 04:31:47;;;;;;;8.30;2.17;;;5.40;99.90;;;;;;5057692;28;20050;-82
2022/10/12 04:34:31;;;;;;;7.80;2.22;;;5.30;99.90;;;;;;5083748;28;20103;-81
2022/10/12 04:37:00;;;;;;;6.65;2.10;;;5.30;99.90;;;;;;5086739;28;20040;-82
2022/10/12 04:39:26;;;;;;;11.75;2.35;;;5.30;99.90;;;;;;5072873;28;20726;-81
2022/10/12 04:41:52;;;;;;;9.00;2.42;;;5.40;99.90;;;;;;5074343;28;20032;-81
2022/10/12 04:44:17;;;;;;;10.00;2.05;;;5.30;99.90;;;;;;5078535;28;20038;-82
2022/10/12 04:46:43;;;;;;;15.80;2.10;;;5.30;99.90;;;;;;5086898;28;20032;-81
2022/10/12 04:49:09;;;;;;;8.90;2.55;;;5.40;99.90;;;;;;5075977;28;20120;-81
2022/10/12 04:51:34;;;;;;;17.52;3.35;;;5.40;99.90;;;;;;5075436;28;20036;-81
2022/10/12 04:54:06;;;;;;;12.82;3.35;;;5.30;99.90;;;;;;5077033;28;20480;-81
2022/10/12 04:56:32;;;;;;;8.30;2.47;;;5.30;99.90;;;;;;5079757;28;20042;-81
2022/10/12 04:58:57;;;;;;;9.40;2.75;;;5.30;99.90;;;;;;5079172;28;20036;-82
2022/10/12 05:01:23;;;;;;;22.33;2.88;;;5.30;99.90;;;;;;5082980;28;20074;-79
2022/10/12 05:03:54;;;;;;;6.78;2.10;;;5.30;99.90;;;;;;5089278;28;20031;-81
2022/10/12 05:06:20;;;;;;;9.32;2.75;;;5.30;99.90;;;;;;5090007;28;20059;-81
2022/10/12 05:08:45;;;;;;;10.32;2.05;;;5.30;99.90;;;;;;5088478;28;20059;-81
2022/10/12 05:11:12;;;;;;;4.65;1.77;;;5.30;99.90;;;;;;5089779;28;20528;-82
2022/10/12 05:13:37;;;;;;;7.93;2.83;;;5.30;99.90;;;;;;5089218;28;20028;-80
2022/10/12 05:16:12;;;;;;;6.97;2.30;;;5.30;99.90;;;;;;5089912;28;20035;-81
2022/10/12 05:18:38;;;;;;;6.07;2.10;;;5.40;99.90;;;;;;5089000;28;20036;-81
2022/10/12 05:21:09;;;;;;;6.90;1.70;;;5.30;99.90;;;;;;5089779;28;20473;-81
2022/10/12 05:23:35;;;;;;;7.03;2.33;;;5.30;99.90;;;;;;5089346;28;20110;-82
2022/10/12 05:26:06;;;;;;;10.50;1.90;;;5.30;99.90;;;;;;5089068;28;20114;-81
2022/10/12 05:28:32;;;;;;;4.95;1.85;;;5.30;99.90;;;;;;5088430;28;20115;-81
2022/10/12 05:30:58;;;;;;;4.78;1.90;;;5.30;99.90;;;;;;5094194;28;20457;-81
2022/10/12 05:33:23;;;;;;;4.82;1.70;;;5.30;99.90;;;;;;5088711;28;20377;-82
2022/10/12 05:35:49;;;;;;;4.63;1.63;;;5.30;99.90;;;;;;5088130;28;20050;-82
2022/10/12 05:38:15;;;;;;;7.47;2.63;;;5.40;99.90;;;;;;5087808;28;20629;-82
2022/10/12 05:40:41;;;;;;;4.80;1.90;;;5.40;99.90;;;;;;5089586;28;20393;-82
2022/10/12 05:43:06;;;;;;;11.45;2.58;;;5.40;99.90;;;;;;5087118;28;20040;-82
2022/10/12 05:45:32;;;;;;;8.27;2.10;;;5.40;99.90;;;;;;5088956;28;20028;-81
2022/10/12 05:48:04;;;;;;;15.75;2.40;;;5.40;99.90;;;;;;5089293;28;20116;-81
2022/10/12 05:50:29;;;;;;;9.23;2.00;;;5.40;99.90;;;;;;5091660;28;20495;-81
2022/10/12 05:52:55;;;;;;;11.57;2.25;;;5.30;99.90;;;;;;5089029;28;20383;-81
2022/10/12 05:55:21;;;;;;;5.82;1.67;;;5.30;99.90;;;;;;5088837;28;20040;-81
2022/10/12 05:57:48;;;;;;;13.50;2.50;;;5.30;99.90;;;;;;5089636;28;20093;-82
2022/10/12 06:00:14;;;;;;;6.50;1.85;;;5.30;99.90;;;;;;5090946;28;20107;-81
2022/10/12 06:56:33;;;;;;;12.45;3.08;;;6.10;99.90;;;;;;5088229;28;20039;-82
2022/10/12 06:58:59;;;;;;;10.65;2.47;;;6.20;99.90;;;;;;5091577;28;20447;-82
2022/10/12 07:01:25;;;;;;;16.58;3.10;;;6.30;99.90;;;;;;5087949;28;20052;-80
2022/10/12 07:03:50;;;;;;;11.95;2.60;;;6.40;99.90;;;;;;5091825;28;20032;-82
2022/10/12 07:06:16;;;;;;;9.63;2.38;;;6.50;99.90;;;;;;5092059;28;20034;-82
2022/10/12 07:08:42;;;;;;;12.38;2.75;;;6.50;99.90;;;;;;5091528;28;20100;-82
2022/10/12 07:11:09;;;;;;;10.07;2.97;;;6.70;99.90;;;;;;5091731;28;20059;-82
2022/10/12 07:13:35;;;;;;;15.25;2.80;;;6.70;99.90;;;;;;5091283;28;20183;-83
2022/10/12 07:16:01;;;;;;;11.70;3.10;;;6.80;99.90;;;;;;5090744;28;20028;-82
2022/10/12 07:18:27;;;;;;;10.48;2.88;;;6.90;99.90;;;;;;5091704;28;20062;-82
2022/10/12 07:20:57;;;;;;;17.35;2.63;;;6.90;99.90;;;;;;5091109;28;20032;-81
2022/10/12 07:23:26;;;;;;;10.45;2.55;;;7.00;99.90;;;;;;5091936;28;20039;-83
2022/10/12 07:25:52;;;;;;;9.85;2.85;;;7.10;99.90;;;;;;5089802;28;20073;-81
2022/10/12 07:28:27;;;;;;;11.00;2.90;;;7.20;99.90;;;;;;5091808;28;20468;-82
2022/10/12 07:30:53;;;;;;;14.82;3.13;;;7.30;99.90;;;;;;5090846;28;20464;-82
2022/10/12 07:33:21;;;;;;;20.23;4.82;;;7.30;99.90;;;;;;5087572;28;20060;-83
2022/10/12 07:35:54;;;;;;;16.33;4.18;;;7.40;99.90;;;;;;5088610;28;20028;-82
2022/10/12 07:38:26;;;;;;;17.52;5.50;;;7.50;99.90;;;;;;5089857;28;20472;-83
2022/10/12 07:40:52;;;;;;;14.15;4.80;;;7.60;99.90;;;;;;5090550;28;20448;-83
2022/10/12 07:43:27;;;;;;;23.10;6.35;;;7.70;99.90;;;;;;5091450;28;20032;-82
2022/10/12 07:45:53;;;;;;;13.68;4.88;;;7.80;99.90;;;;;;5090699;28;20046;-82
2022/10/12 07:48:28;;;;;;;21.30;5.13;;;7.90;99.90;;;;;;5091316;28;20115;-84
2022/10/12 07:50:54;;;;;;;23.30;3.80;;;8.10;99.90;;;;;;5090368;28;20028;-83
2022/10/12 07:53:22;;;;;;;22.10;3.63;;;8.40;99.90;;;;;;5091205;28;20085;-82
2022/10/12 07:55:48;;;;;;;14.32;2.25;;;8.70;99.90;;;;;;5090826;28;20019;-91
2022/10/12 07:58:14;;;;;;;19.80;3.30;;;8.90;99.90;;;;;;5091417;28;20077;-84
2022/10/12 08:00:39;;;;;;;20.60;3.53;;;9.00;99.90;;;;;;5090023;28;20066;-83
2022/10/12 08:03:05;;;;;;;18.48;3.08;;;9.30;99.90;;;;;;5091101;28;20353;-83
2022/10/12 08:05:31;;;;;;;17.20;2.95;;;9.40;99.90;;;;;;5089729;28;20040;-82
2022/10/12 08:07:58;;;;;;;30.35;4.05;;;9.50;99.90;;;;;;5090005;28;20036;-83
2022/10/12 08:10:24;;;;;;;10.55;2.22;;;9.70;99.90;;;;;;5089141;28;20035;-83
2022/10/12 08:12:50;;;;;;;20.95;3.20;;;9.80;99.90;;;;;;5091327;28;20024;-83
2022/10/12 08:15:21;;;;;;;14.00;2.33;;;9.90;99.90;;;;;;5090071;28;20028;-82
2022/10/12 08:17:47;;;;;;;14.15;2.60;;;10.00;99.90;;;;;;5086641;28;20498;-82
2022/10/12 08:20:12;;;;;;;16.23;2.33;;;10.10;99.90;;;;;;5087057;28;20034;-81
2022/10/12 08:22:38;;;;;;;25.05;3.30;;;10.20;99.90;;;;;;5087723;28;20123;-83
2022/10/12 08:25:04;;;;;;;13.27;2.47;;;10.30;99.90;;;;;;5090263;28;20430;-83
2022/10/12 08:27:33;;;;;;;16.10;3.03;;;10.40;99.90;;;;;;5090273;28;20028;-82
2022/10/12 08:29:58;;;;;;;15.20;3.15;;;10.50;99.90;;;;;;5089709;28;20058;-83
2022/10/12 08:32:29;;;;;;;16.15;2.72;;;10.60;99.90;;;;;;5090202;28;20043;-82
2022/10/12 08:34:55;;;;;;;11.25;2.40;;;10.70;99.90;;;;;;5089624;28;20027;-83
2022/10/12 08:37:29;;;;;;;16.25;3.30;;;10.70;99.90;;;;;;5084216;28;20032;-80
2022/10/12 08:39:56;;;;;;;9.67;2.70;;;10.80;99.90;;;;;;5089493;28;20302;-82
2022/10/12 08:42:47;;;;;;;17.48;3.15;;;10.80;99.90;;;;;;5090202;28;20036;-82
2022/10/12 08:45:40;;;;;;;18.92;2.92;;;10.90;99.90;;;;;;5087988;28;20036;-83
2022/10/12 08:48:17;;;;;;;17.30;3.35;;;10.90;99.90;;;;;;5090494;28;20099;-83
2022/10/12 08:50:52;;;;;;;17.33;2.72;;;11.00;99.90;;;;;;5089269;28;20447;-82
2022/10/12 08:53:24;;;;;;;16.02;3.00;;;11.00;99.90;;;;;;5077576;28;20522;-82
2022/10/12 08:55:51;;;;;;;14.80;2.78;;;11.20;99.90;;;;;;5089698;28;20024;-82
2022/10/12 08:58:29;;;;;;;14.35;2.63;;;11.20;99.90;;;;;;5090437;28;20024;-84
2022/10/12 09:01:05;;;;;;;17.80;2.80;;;11.20;99.90;;;;;;5088875;28;20052;-83
2022/10/12 09:03:39;;;;;;;19.45;2.45;;;11.30;99.90;;;;;;5089957;28;20038;-85
2022/10/12 09:06:21;;;;;;;18.27;3.22;;;11.30;99.90;;;;;;5089915;28;20020;-83
2022/10/12 09:09:24;;;;;;;19.85;3.33;;;11.40;99.90;;;;;;5090055;28;20028;-83
2022/10/12 09:11:52;;;;;;;13.52;2.95;;;11.50;99.90;;;;;;5088817;28;20020;-85
2022/10/12 09:14:32;;;;;;;30.23;3.47;;;11.60;99.90;;;;;;5088429;28;20024;-83
2022/10/12 09:17:00;;;;;;;16.92;2.97;;;11.70;99.90;;;;;;5090041;28;20024;-83
2022/10/12 09:19:39;;;;;;;10.95;2.35;;;11.70;99.90;;;;;;5088923;28;20048;-83
2022/10/12 09:22:16;;;;;;;21.02;3.65;;;11.70;99.90;;;;;;5079051;28;20040;-83
2022/10/12 09:24:44;;;;;;;18.60;2.45;;;11.80;99.90;;;;;;5089011;28;20543;-83
2022/10/12 09:27:15;;;;;;;20.15;3.00;;;11.90;99.90;;;;;;5089864;28;20031;-83
2022/10/12 09:29:46;;;;;;;12.27;2.80;;;11.90;99.90;;;;;;5088819;28;20366;-83
2022/10/12 09:32:32;;;;;;;13.50;2.58;;;12.00;99.90;;;;;;5089627;28;20579;-83
2022/10/12 09:34:58;;;;;;;11.73;2.47;;;12.00;99.90;;;;;;5089475;28;20085;-82
2022/10/12 09:37:31;;;;;;;10.57;3.33;;;12.10;99.90;;;;;;5093729;28;20031;-83
2022/10/12 09:39:57;;;;;;;22.92;2.88;;;12.10;99.90;;;;;;5093094;28;20028;-83
2022/10/12 09:42:33;;;;;;;9.25;2.67;;;12.20;99.90;;;;;;5093614;28;20538;-82
2022/10/12 09:45:03;;;;;;;21.42;3.80;;;12.20;99.90;;;;;;5083528;28;20024;-83
2022/10/12 09:47:34;;;;;;;16.67;3.30;;;12.20;99.90;;;;;;5093566;28;20043;-83
2022/10/12 09:50:05;;;;;;;21.88;3.10;;;12.30;99.90;;;;;;5090999;28;20028;-83
2022/10/12 09:52:57;;;;;;;12.05;3.25;;;12.40;99.90;;;;;;5091551;28;20081;-83
2022/10/12 09:55:32;;;;;;;19.20;3.58;;;12.50;99.90;;;;;;5086945;28;20054;-83
2022/10/12 09:58:01;;;;;;;18.42;3.40;;;12.60;99.90;;;;;;5084675;28;20162;-84
2022/10/12 10:00:32;;;;;;;22.60;3.22;;;12.70;99.90;;;;;;5092128;28;20032;-83
2022/10/12 10:03:00;;;;;;;10.68;2.72;;;12.70;99.90;;;;;;5093362;28;20020;-83
2022/10/12 10:05:31;;;;;;;14.07;2.75;;;12.60;99.90;;;;;;5087649;28;20690;-82
2022/10/12 10:08:22;;;;;;;16.45;2.55;;;12.70;99.90;;;;;;5093074;28;20059;-84
2022/10/12 10:10:48;;;;;;;15.10;2.85;;;12.70;99.90;;;;;;5083943;28;20127;-83
2022/10/12 10:13:15;;;;;;;8.15;2.28;;;12.80;99.90;;;;;;5093077;28;20491;-83
2022/10/12 10:15:48;;;;;;;9.68;2.85;;;12.80;99.90;;;;;;5092446;28;20236;-83
2022/10/12 10:18:24;;;;;;;12.15;3.13;;;12.90;99.90;;;;;;5093091;28;20107;-83
2022/10/12 10:20:49;;;;;;;;;;;12.90;99.90;;;;;;5092870;28;20366;-83
2022/10/12 10:23:35;;;;;;;11.52;2.92;;;13.00;99.90;;;;;;5093061;28;19912;-83
2022/10/12 10:26:11;;;;;;;17.38;3.58;;;13.10;99.90;;;;;;5092138;28;20032;-84
2022/10/12 10:28:39;;;;;;;14.85;4.22;;;13.10;99.90;;;;;;5092606;28;20387;-83
2022/10/12 10:31:20;;;;;;;16.23;4.18;;;13.20;99.90;;;;;;5092097;28;20485;-83
2022/10/12 10:34:12;;;;;;;11.88;2.90;;;13.20;99.90;;;;;;5092589;28;20480;-83
2022/10/12 10:36:58;;;;;;;9.18;3.15;;;13.20;99.90;;;;;;5088273;28;20103;-82
2022/10/12 10:39:51;;;;;;;18.67;3.13;;;13.20;99.90;;;;;;5083209;28;20451;-82
2022/10/12 10:42:30;;;;;;;11.80;3.05;;;13.20;99.90;;;;;;5089667;28;20040;-83
2022/10/12 10:45:02;;;;;;;15.90;3.33;;;13.30;99.90;;;;;;5090451;28;20077;-83
2022/10/12 10:47:40;;;;;;;16.67;3.08;;;13.30;99.90;;;;;;5092085;28;20032;-83
2022/10/12 10:50:21;;;;;;;14.98;3.40;;;13.30;99.90;;;;;;5091677;28;20036;-82
2022/10/12 10:52:54;;;;;;;14.75;3.72;;;13.40;99.90;;;;;;5092204;28;20035;-84
2022/10/12 10:55:47;;;;;;;16.88;3.10;;;13.50;99.90;;;;;;5091701;28;20032;-83
2022/10/12 10:58:57;;;;;;;16.42;3.25;;;13.50;99.90;;;;;;5080470;28;20044;-83
2022/10/12 11:01:34;;;;;;;16.45;3.20;;;13.60;99.90;;;;;;5017556;28;20054;-83
2022/10/12 11:04:06;;;;;;;10.93;2.60;;;13.60;99.90;;;;;;5046654;28;20116;-83
2022/10/12 11:06:43;;;;;;;14.48;3.15;;;13.70;99.90;;;;;;5050872;28;20025;-83
2022/10/12 11:09:28;;;;;;;9.52;2.75;;;13.70;99.90;;;;;;5047108;28;20083;-83
2022/10/12 11:12:39;;;;;;;14.20;3.15;;;13.60;99.90;;;;;;5051498;28;20436;-83
2022/10/12 11:15:14;;;;;;;8.70;2.85;;;13.70;99.90;;;;;;5042359;28;20036;-83
2022/10/12 11:17:56;;;;;;;18.30;3.33;;;13.70;99.90;;;;;;5047783;28;20095;-84
2022/10/12 11:20:50;;;;;;;10.75;2.67;;;13.80;99.90;;;;;;5048952;28;20041;-82
2022/10/12 11:23:27;;;;;;;10.02;3.22;;;13.80;99.90;;;;;;5049070;28;20051;-83
2022/10/12 11:26:24;;;;;;;8.77;2.78;;;13.90;99.90;;;;;;5047974;28;20056;-81
2022/10/12 11:28:51;;;;;;;19.90;4.10;;;13.90;99.90;;;;;;5043999;28;20386;-83
2022/10/12 11:31:22;;;;;;;14.15;2.92;;;13.90;99.90;;;;;;5050784;28;20029;-83
2022/10/12 11:33:50;;;;;;;17.25;3.58;;;14.00;99.90;;;;;;5051162;28;20047;-83
2022/10/12 11:36:20;;;;;;;16.05;3.22;;;14.00;99.90;;;;;;5034283;28;20089;-83
2022/10/12 11:38:59;;;;;;;14.82;3.00;;;14.10;99.90;;;;;;5044464;28;20112;-82
2022/10/12 11:41:47;;;;;;;12.02;3.15;;;14.10;99.90;;;;;;5037338;28;20046;-83
2022/10/12 11:44:46;;;;;;;15.30;3.08;;;14.00;99.90;;;;;;5050692;28;20110;-83
2022/10/12 11:47:33;;;;;;;16.60;2.88;;;14.00;99.90;;;;;;5041106;28;20049;-83
2022/10/12 11:50:05;;;;;;;19.20;3.80;;;14.00;99.90;;;;;;5044045;28;20100;-82
2022/10/12 11:52:42;;;;;;;12.48;3.00;;;14.00;99.90;;;;;;5059543;28;20037;-83
2022/10/12 11:55:37;;;;;;;15.63;3.63;;;14.10;99.90;;;;;;5045474;28;20148;-82
2022/10/12 11:58:17;;;;;;;12.93;3.75;;;14.20;99.90;;;;;;5047782;28;20037;-83
2022/10/12 12:01:01;;;;;;;12.20;3.78;;;14.30;99.90;;;;;;5060274;28;20497;-82
2022/10/12 12:03:50;;;;;;;17.58;3.33;;;14.30;99.90;;;;;;5090508;28;20074;-83
2022/10/12 12:06:43;;;;;;;17.38;3.42;;;14.30;99.90;;;;;;5089340;28;20028;-83
2022/10/12 12:09:29;;;;;;;12.50;4.30;;;14.40;99.90;;;;;;5080603;28;20225;-83
2022/10/12 12:12:15;;;;;;;17.73;4.55;;;14.50;99.90;;;;;;5082614;28;20077;-82
2022/10/12 12:15:05;;;;;;;10.32;3.33;;;14.50;99.90;;;;;;5083637;28;21257;-83
2022/10/12 12:17:32;;;;;;;12.32;3.17;;;14.60;99.90;;;;;;5082240;28;20031;-82
2022/10/12 12:20:00;;;;;;;12.30;2.90;;;14.60;99.90;;;;;;5089569;28;20451;-82
2022/10/12 12:22:32;;;;;;;16.30;3.88;;;14.70;99.90;;;;;;5089930;28;20052;-82
2022/10/12 12:25:03;;;;;;;13.32;3.78;;;14.80;99.90;;;;;;5086215;28;20028;-82
2022/10/12 12:27:46;;;;;;;11.48;3.95;;;14.80;99.90;;;;;;5088732;28;20362;-82
2022/10/12 12:30:17;;;;;;;14.00;3.67;;;14.80;99.90;;;;;;5088088;28;20080;-82
2022/10/12 12:32:53;;;;;;;13.13;3.40;;;14.90;99.90;;;;;;5085475;28;20037;-83
2022/10/12 12:35:39;;;;;;;10.23;4.13;;;14.90;99.90;;;;;;5078003;28;20075;-83
2022/10/12 12:38:10;;;;;;;13.52;3.60;;;14.90;99.90;;;;;;5082544;28;20032;-82
2022/10/12 12:40:56;;;;;;;14.60;3.60;;;14.90;99.90;;;;;;5080997;28;20028;-81
2022/10/12 12:43:30;;;;;;;10.35;3.20;;;15.00;99.90;;;;;;5086437;28;20542;-81
2022/10/12 12:46:10;;;;;;;7.50;2.85;;;15.00;99.90;;;;;;5085193;28;20133;-83
2022/10/12 12:48:38;;;;;;;23.67;3.80;;;15.00;99.90;;;;;;5083647;28;20058;-83
2022/10/12 12:51:22;;;;;;;8.00;3.03;;;15.10;99.90;;;;;;5075278;28;20039;-83
2022/10/12 12:54:00;;;;;;;10.85;3.17;;;15.20;99.90;;;;;;5079910;28;20032;-82
2022/10/12 12:56:52;;;;;;;10.88;3.30;;;15.30;99.90;;;;;;5076435;28;20028;-81
2022/10/12 12:59:53;;;;;;;10.90;2.80;;;15.50;99.90;;;;;;5080476;28;20656;-82
2022/10/12 13:03:01;;;;;;;15.90;2.85;;;15.50;99.90;;;;;;5076893;28;20064;-82
2022/10/12 13:06:18;;;;;;;14.75;2.72;;;15.40;99.90;;;;;;5044951;28;20048;-82
2022/10/12 13:09:02;;;;;;;11.32;2.88;;;15.40;99.90;;;;;;5081771;28;20065;-83
2022/10/12 13:11:43;;;;;;;13.48;2.60;;;15.50;99.90;;;;;;5075483;28;20158;-82
2022/10/12 13:14:28;;;;;;;11.40;2.55;;;15.50;99.90;;;;;;5082067;28;20032;-83
2022/10/12 13:17:08;;;;;;;12.63;2.92;;;15.40;99.90;;;;;;5086930;28;20603;-82
2022/10/12 13:19:35;;;;;;;9.23;2.72;;;15.30;99.90;;;;;;5086248;28;20040;-82
2022/10/12 13:22:24;;;;;;;9.77;2.90;;;15.30;99.90;;;;;;5076085;28;20080;-82
2022/10/12 13:24:57;;;;;;;6.75;2.47;;;15.30;99.90;;;;;;5076836;28;20055;-83
2022/10/12 13:27:43;;;;;;;12.30;2.90;;;15.20;99.90;;;;;;5089439;28;20381;-82
2022/10/12 13:30:14;;;;;;;7.63;2.42;;;15.40;99.90;;;;;;5084274;28;20035;-82
2022/10/12 13:32:59;;;;;;;6.22;3.05;;;15.40;99.90;;;;;;5068571;28;20571;-81
2022/10/12 13:35:31;;;;;;;16.65;3.22;;;15.40;99.90;;;;;;5078668;28;20047;-82
2022/10/12 13:38:02;;;;;;;10.88;2.83;;;15.30;99.90;;;;;;5075009;28;20766;-81
2022/10/12 13:40:52;;;;;;;13.88;2.58;;;15.20;99.90;;;;;;5079045;28;20032;-83
2022/10/12 13:43:19;;;;;;;16.83;4.13;;;15.10;99.90;;;;;;5079437;28;20551;-82
2022/10/12 13:45:46;;;;;;;11.15;2.90;;;15.00;99.90;;;;;;5085849;28;20036;-83
2022/10/12 13:48:18;;;;;;;10.63;3.15;;;15.00;99.90;;;;;;5087484;28;20036;-82
2022/10/12 13:51:21;;;;;;;20.20;4.93;;;15.00;99.90;;;;;;5086302;28;20051;-82
2022/10/12 13:53:47;;;;;;;8.32;2.78;;;14.90;99.90;;;;;;5073711;28;20048;-81
2022/10/12 13:56:19;;;;;;;11.43;2.72;;;15.00;99.90;;;;;;5085402;28;20401;-83
2022/10/12 13:58:45;;;;;;;18.42;2.67;;;15.00;99.90;;;;;;5070948;28;20028;-82
2022/10/12 14:01:12;;;;;;;12.43;3.17;;;15.10;99.90;;;;;;5075220;28;20407;-83
2022/10/12 14:03:43;;;;;;;9.57;3.53;;;15.30;99.90;;;;;;5083404;28;20523;-83
2022/10/12 14:06:31;;;;;;;11.68;2.85;;;15.50;99.90;;;;;;5083680;28;20557;-81
2022/10/12 14:09:05;;;;;;;12.60;2.72;;;15.80;99.90;;;;;;5081751;28;20039;-80
2022/10/12 14:11:34;;;;;;;14.70;3.22;;;16.00;99.90;;;;;;5087365;28;20066;-80
2022/10/12 14:14:00;;;;;;;13.20;3.58;;;16.00;99.90;;;;;;5079137;28;20029;-81
2022/10/12 14:16:26;;;;;;;8.07;2.70;;;15.90;99.90;;;;;;5087892;28;20031;-81
2022/10/12 14:18:51;;;;;;;5.15;2.28;;;15.80;99.90;;;;;;5083909;28;20036;-80